createdAt,value
2018-12-10T00:01:32.489Z,7.90
2018-12-10T00:03:58.510Z,7.80
2018-12-10T00:06:24.744Z,7.90
2018-12-10T00:08:50.776Z,7.90
2018-12-10T00:11:16.807Z,7.90
2018-12-10T00:13:42.823Z,7.90
2018-12-10T00:16:08.947Z,7.80
2018-12-10T00:18:35.128Z,7.80
2018-12-10T00:21:01.149Z,7.80
2018-12-10T00:23:27.166Z,7.80
2018-12-10T00:25:53.444Z,7.70
2018-12-10T00:28:19.447Z,7.70
2018-12-10T00:30:45.447Z,7.70
2018-12-10T00:33:11.481Z,7.60
2018-12-10T00:35:37.613Z,7.60
2018-12-10T00:38:03.840Z,7.50
2018-12-10T00:40:29.971Z,7.50
2018-12-10T00:42:55.990Z,7.50
2018-12-10T00:45:22.118Z,7.40
2018-12-10T00:47:48.143Z,7.40
2018-12-10T00:50:14.159Z,7.50
2018-12-10T00:52:40.171Z,7.40
2018-12-10T00:55:06.297Z,7.40
2018-12-10T00:57:32.309Z,7.40
2018-12-10T00:59:58.438Z,7.30
2018-12-10T01:02:24.455Z,7.30
2018-12-10T01:04:50.467Z,7.30
2018-12-10T01:07:16.607Z,7.40
2018-12-10T01:09:42.735Z,7.30
2018-12-10T01:12:08.745Z,7.30
2018-12-10T01:17:36.769Z,7.40
2018-12-10T01:20:03.799Z,7.40
2018-12-10T01:22:29.795Z,7.50
2018-12-10T01:24:55.823Z,7.50
2018-12-10T01:27:21.835Z,7.60
2018-12-10T01:29:47.840Z,7.60
2018-12-10T01:32:13.863Z,7.60
2018-12-10T01:34:39.900Z,7.50
2018-12-10T01:37:05.915Z,7.70
2018-12-10T01:39:31.927Z,7.70
2018-12-10T01:41:57.944Z,7.50
2018-12-10T01:44:24.083Z,7.70
2018-12-10T01:46:50.091Z,7.60
2018-12-10T01:49:16.423Z,7.60
2018-12-10T01:51:42.443Z,7.40
2018-12-10T01:54:08.469Z,7.50
2018-12-10T01:56:34.699Z,7.50
2018-12-10T01:59:00.717Z,7.50
2018-12-10T02:01:26.851Z,7.50
2018-12-10T02:03:52.869Z,7.50
2018-12-10T02:06:18.875Z,7.50
2018-12-10T02:08:44.883Z,7.40
2018-12-10T02:11:10.920Z,7.40
2018-12-10T02:13:37.168Z,7.40
2018-12-10T02:16:03.177Z,7.40
2018-12-10T02:18:29.195Z,7.30
2018-12-10T02:20:55.203Z,7.30
2018-12-10T02:23:21.232Z,7.30
2018-12-10T02:25:47.265Z,7.30
2018-12-10T02:28:15.307Z,7.30
2018-12-10T02:30:41.443Z,7.30
2018-12-10T02:33:07.452Z,7.30
2018-12-10T02:35:33.599Z,7.30
2018-12-10T02:37:59.644Z,7.10
2018-12-10T02:40:25.644Z,7.30
2018-12-10T02:42:51.666Z,7.30
2018-12-10T02:45:17.796Z,7.40
2018-12-10T02:47:44.029Z,7.30
2018-12-10T02:50:10.153Z,7.30
2018-12-10T02:52:36.186Z,7.30
2018-12-10T02:55:02.526Z,7.30
2018-12-10T02:57:28.535Z,6.90
2018-12-10T02:59:54.664Z,7.30
2018-12-10T03:02:20.677Z,7.30
2018-12-10T03:04:46.703Z,7.30
2018-12-10T03:07:12.728Z,7.30
2018-12-10T03:09:38.870Z,7.40
2018-12-10T03:12:04.910Z,7.40
2018-12-10T03:14:31.019Z,7.40
2018-12-10T03:16:57.028Z,7.50
2018-12-10T03:19:23.050Z,7.50
2018-12-10T03:21:49.069Z,7.60
2018-12-10T03:24:15.085Z,7.60
2018-12-10T03:26:41.092Z,7.70
2018-12-10T03:29:07.132Z,7.60
2018-12-10T03:31:33.292Z,7.70
2018-12-10T03:33:59.400Z,7.70
2018-12-10T03:36:25.523Z,7.60
2018-12-10T03:38:51.532Z,7.60
2018-12-10T03:41:17.668Z,7.60
2018-12-10T03:43:50.817Z,7.50
2018-12-10T03:46:16.935Z,7.50
2018-12-10T03:48:49.987Z,7.50
2018-12-10T03:51:16.011Z,7.40
2018-12-10T03:53:42.015Z,7.40
2018-12-10T03:56:08.072Z,7.40
2018-12-10T03:58:34.104Z,7.40
2018-12-10T04:01:00.138Z,7.40
2018-12-10T04:03:26.144Z,7.30
2018-12-10T04:05:52.175Z,7.30
2018-12-10T04:08:18.193Z,7.30
2018-12-10T04:10:44.211Z,7.40
2018-12-10T04:13:10.243Z,7.20
2018-12-10T04:15:36.483Z,7.20
2018-12-10T04:18:02.707Z,7.20
2018-12-10T04:20:28.745Z,7.20
2018-12-10T04:22:54.751Z,7.20
2018-12-10T04:25:20.765Z,7.10
2018-12-10T04:27:46.793Z,7.10
2018-12-10T04:30:12.926Z,7.10
2018-12-10T04:32:38.931Z,7.00
2018-12-10T04:35:04.954Z,7.00
2018-12-10T04:37:38.002Z,7.00
2018-12-10T04:40:04.229Z,7.00
2018-12-10T04:42:30.248Z,7.00
2018-12-10T04:44:56.251Z,7.00
2018-12-10T04:47:22.279Z,7.10
2018-12-10T04:49:48.305Z,7.10
2018-12-10T04:52:14.675Z,7.10
2018-12-10T04:54:40.692Z,7.20
2018-12-10T04:57:06.697Z,7.10
2018-12-10T04:59:32.724Z,7.20
2018-12-10T05:01:58.742Z,7.20
2018-12-10T05:04:24.747Z,7.00
2018-12-10T05:06:51.223Z,7.20
2018-12-10T05:09:17.223Z,7.20
2018-12-10T05:11:43.267Z,7.10
2018-12-10T05:14:09.483Z,7.10
2018-12-10T05:16:35.598Z,7.10
2018-12-10T05:19:01.594Z,7.00
2018-12-10T05:21:27.615Z,7.00
2018-12-10T05:23:53.625Z,7.00
2018-12-10T05:26:19.631Z,7.00
2018-12-10T05:28:45.638Z,7.00
2018-12-10T05:31:11.772Z,6.90
2018-12-10T05:33:37.776Z,6.90
2018-12-10T05:36:03.896Z,6.90
2018-12-10T05:38:29.899Z,6.90
2018-12-10T05:40:55.902Z,6.80
2018-12-10T05:43:21.933Z,6.80
2018-12-10T05:45:47.945Z,7.00
2018-12-10T05:48:14.001Z,6.80
2018-12-10T05:50:40.113Z,6.80
2018-12-10T05:53:06.215Z,6.80
2018-12-10T05:55:32.310Z,6.80
2018-12-10T05:57:58.427Z,6.70
2018-12-10T06:00:24.540Z,6.70
2018-12-10T06:02:50.655Z,6.70
2018-12-10T06:05:17.096Z,6.70
2018-12-10T06:07:43.271Z,6.70
2018-12-10T06:10:09.668Z,6.70
2018-12-10T06:12:35.768Z,6.60
2018-12-10T06:15:01.995Z,6.60
2018-12-10T06:17:28.103Z,6.60
2018-12-10T06:19:54.208Z,6.60
2018-12-10T06:22:20.319Z,6.60
2018-12-10T06:24:46.431Z,6.60
2018-12-10T06:27:12.543Z,6.60
2018-12-10T06:29:38.675Z,6.60
2018-12-10T06:32:04.843Z,6.60
2018-12-10T06:34:31.071Z,6.60
2018-12-10T06:36:57.170Z,6.70
2018-12-10T06:39:23.295Z,6.70
2018-12-10T06:41:49.468Z,6.70
2018-12-10T06:44:15.581Z,6.70
2018-12-10T06:46:41.711Z,6.80
2018-12-10T06:49:07.913Z,6.80
2018-12-10T06:51:34.079Z,6.80
2018-12-10T06:54:00.300Z,6.80
2018-12-10T06:56:26.407Z,6.80
2018-12-10T06:58:52.524Z,6.80
2018-12-10T07:01:18.649Z,6.80
2018-12-10T07:03:46.783Z,6.70
2018-12-10T07:06:12.903Z,6.70
2018-12-10T07:08:39.111Z,6.70
2018-12-10T07:11:05.225Z,6.70
2018-12-10T07:13:31.345Z,6.70
2018-12-10T07:15:57.473Z,6.70
2018-12-10T07:18:23.703Z,6.70
2018-12-10T07:20:49.808Z,6.70
2018-12-10T07:23:15.911Z,6.80
2018-12-10T07:25:42.039Z,6.80
2018-12-10T07:28:08.139Z,6.80
2018-12-10T07:30:41.279Z,6.80
2018-12-10T07:33:02.399Z,6.80
2018-12-10T07:35:28.519Z,6.80
2018-12-10T07:37:54.651Z,6.90
2018-12-10T07:40:20.779Z,6.90
2018-12-10T07:42:46.916Z,6.90
2018-12-10T07:45:13.039Z,6.90
2018-12-10T07:47:39.143Z,7.00
2018-12-10T07:50:05.483Z,7.00
2018-12-10T07:52:31.604Z,7.00
2018-12-10T07:54:57.827Z,7.10
2018-12-10T07:57:23.930Z,7.10
2018-12-10T07:59:50.055Z,7.10
2018-12-10T08:02:16.163Z,7.10
2018-12-10T08:04:42.284Z,7.00
2018-12-10T08:07:08.543Z,7.10
2018-12-10T08:09:34.836Z,7.10
2018-12-10T08:12:00.951Z,7.20
2018-12-10T08:14:27.051Z,7.20
2018-12-10T08:16:53.183Z,7.20
2018-12-10T08:19:19.419Z,7.20
2018-12-10T08:21:45.535Z,7.30
2018-12-10T08:24:11.650Z,7.30
2018-12-10T08:26:37.969Z,7.40
2018-12-10T08:29:07.399Z,7.30
2018-12-10T08:31:32.385Z,7.40
2018-12-10T08:33:58.591Z,7.40
2018-12-10T08:36:24.811Z,7.30
2018-12-10T08:38:50.968Z,7.40
2018-12-10T08:41:17.103Z,7.40
2018-12-10T08:43:43.139Z,7.40
2018-12-10T08:46:09.163Z,7.60
2018-12-10T08:48:35.187Z,7.50
2018-12-10T08:51:01.258Z,7.60
2018-12-10T08:53:27.484Z,7.60
2018-12-10T08:55:53.513Z,7.70
2018-12-10T08:58:19.539Z,7.70
2018-12-10T09:00:45.582Z,7.70
2018-12-10T09:03:11.636Z,7.70
2018-12-10T09:05:37.881Z,7.80
2018-12-10T09:08:04.011Z,7.80
2018-12-10T09:10:30.052Z,7.80
2018-12-10T09:12:56.058Z,7.90
2018-12-10T09:15:22.087Z,7.90
2018-12-10T09:17:48.205Z,7.90
2018-12-10T09:20:14.244Z,8.00
2018-12-10T09:22:40.251Z,8.00
2018-12-10T09:25:06.578Z,8.00
2018-12-10T09:27:32.587Z,8.00
2018-12-10T09:29:58.711Z,8.10
2018-12-10T09:32:24.727Z,8.10
2018-12-10T09:34:50.759Z,8.10
2018-12-10T09:37:16.777Z,8.20
2018-12-10T09:39:42.787Z,8.20
2018-12-10T09:42:09.131Z,8.30
2018-12-10T09:44:35.171Z,8.30
2018-12-10T09:47:01.191Z,8.30
2018-12-10T09:49:27.332Z,8.40
2018-12-10T09:51:53.349Z,8.40
2018-12-10T09:54:19.367Z,8.50
2018-12-10T09:56:45.507Z,8.50
2018-12-10T09:59:11.552Z,8.50
2018-12-10T10:01:37.596Z,8.50
2018-12-10T10:04:03.702Z,8.60
2018-12-10T10:06:29.755Z,8.60
2018-12-10T10:08:55.767Z,8.60
2018-12-10T10:11:21.916Z,8.60
2018-12-10T10:13:47.939Z,8.60
2018-12-10T10:16:13.957Z,8.50
2018-12-10T10:18:40.093Z,8.50
2018-12-10T10:21:11.258Z,8.50
2018-12-10T10:23:41.871Z,8.50
2018-12-10T10:26:07.922Z,8.40
2018-12-10T10:28:33.939Z,8.50
2018-12-10T10:30:59.979Z,8.40
2018-12-10T10:33:32.346Z,8.50
2018-12-10T10:35:54.024Z,8.50
2018-12-10T10:38:20.159Z,8.50
2018-12-10T10:40:46.169Z,8.60
2018-12-10T10:43:12.204Z,8.60
2018-12-10T10:45:38.227Z,8.60
2018-12-10T10:48:04.351Z,8.70
2018-12-10T10:50:30.480Z,8.70
2018-12-10T10:53:03.652Z,8.70
2018-12-10T10:55:29.671Z,8.80
2018-12-10T10:57:55.700Z,8.80
2018-12-10T11:00:28.000Z,8.90
2018-12-10T11:02:56.101Z,8.90
2018-12-10T11:05:22.231Z,8.90
2018-12-10T11:07:48.351Z,9.00
2018-12-10T11:10:14.536Z,9.00
2018-12-10T11:12:40.563Z,9.00
2018-12-10T11:15:06.783Z,9.00
2018-12-10T11:17:32.907Z,9.10
2018-12-10T11:19:58.904Z,9.00
2018-12-10T11:22:24.959Z,9.00
2018-12-10T11:24:50.987Z,8.90
2018-12-10T11:27:16.999Z,9.00
2018-12-10T11:29:43.031Z,8.90
2018-12-10T11:32:09.167Z,8.90
2018-12-10T11:34:35.192Z,8.80
2018-12-10T11:37:01.200Z,8.80
2018-12-10T11:39:27.220Z,8.80
2018-12-10T11:41:53.403Z,8.80
2018-12-10T11:44:19.449Z,8.80
2018-12-10T11:46:45.569Z,8.80
2018-12-10T11:49:11.596Z,8.80
2018-12-10T11:51:37.732Z,8.80
2018-12-10T11:54:03.940Z,8.80
2018-12-10T11:56:30.213Z,8.80
2018-12-10T11:58:56.212Z,8.90
2018-12-10T12:01:22.485Z,8.90
2018-12-10T12:03:48.606Z,8.90
2018-12-10T12:06:14.636Z,8.90
2018-12-10T12:08:40.655Z,8.80
2018-12-10T12:11:06.696Z,9.00
2018-12-10T12:13:39.667Z,9.00
2018-12-10T12:16:05.683Z,9.10
2018-12-10T12:18:31.710Z,9.10
2018-12-10T12:20:58.009Z,9.10
2018-12-10T12:23:24.015Z,9.10
2018-12-10T12:25:50.037Z,9.10
2018-12-10T12:28:16.158Z,9.10
2018-12-10T12:30:42.189Z,9.20
2018-12-10T12:33:08.210Z,9.20
2018-12-10T12:35:34.224Z,9.20
2018-12-10T12:38:00.243Z,9.20
2018-12-10T12:40:26.275Z,9.30
2018-12-10T12:42:52.403Z,9.30
2018-12-10T12:45:18.429Z,9.30
2018-12-10T12:47:44.575Z,9.30
2018-12-10T12:50:10.583Z,9.40
2018-12-10T12:52:36.720Z,9.40
2018-12-10T12:55:03.151Z,9.50
2018-12-10T12:57:29.181Z,9.60
2018-12-10T12:59:55.202Z,9.60
2018-12-10T13:02:21.226Z,9.50
2018-12-10T13:04:47.251Z,9.60
2018-12-10T13:07:13.375Z,9.60
2018-12-10T13:09:39.503Z,9.60
2018-12-10T13:12:05.515Z,9.60
2018-12-10T13:14:31.528Z,9.50
2018-12-10T13:16:57.557Z,9.50
2018-12-10T13:19:23.611Z,9.50
2018-12-10T13:21:49.749Z,9.50
2018-12-10T13:24:15.814Z,9.50
2018-12-10T13:26:41.955Z,9.40
2018-12-10T13:29:08.204Z,9.10
2018-12-10T13:31:34.427Z,9.40
2018-12-10T13:34:00.495Z,9.50
2018-12-10T13:36:26.519Z,9.40
2018-12-10T13:38:52.548Z,9.50
2018-12-10T13:41:19.310Z,9.30
2018-12-10T13:43:45.335Z,9.60
2018-12-10T13:46:11.351Z,9.50
2018-12-10T13:48:37.384Z,9.60
2018-12-10T13:51:03.512Z,9.60
2018-12-10T13:53:29.515Z,9.60
2018-12-10T13:55:55.704Z,9.70
2018-12-10T13:58:22.003Z,9.70
2018-12-10T14:00:51.041Z,9.70
2018-12-10T14:03:17.311Z,9.70
2018-12-10T14:05:47.558Z,9.70
2018-12-10T14:08:11.362Z,9.80
2018-12-10T14:10:37.672Z,9.80
2018-12-10T14:13:10.570Z,9.80
2018-12-10T14:15:36.715Z,9.80
2018-12-10T14:18:02.978Z,9.70
2018-12-10T14:20:28.990Z,9.70
2018-12-10T14:22:55.129Z,9.70
2018-12-10T14:25:23.364Z,9.60
2018-12-10T14:27:50.386Z,9.60
2018-12-10T14:30:16.619Z,9.50
2018-12-10T14:32:42.839Z,9.40
2018-12-10T14:35:09.133Z,9.40
2018-12-10T14:37:35.250Z,9.30
2018-12-10T14:40:01.375Z,9.30
2018-12-10T14:42:27.389Z,9.20
2018-12-10T14:44:53.527Z,9.10
2018-12-10T14:47:19.743Z,9.10
2018-12-10T14:49:45.755Z,9.00
2018-12-10T14:52:11.987Z,8.90
2018-12-10T14:54:37.987Z,8.90
2018-12-10T14:57:04.115Z,8.90
2018-12-10T14:59:30.242Z,8.80
2018-12-10T15:01:56.248Z,8.80
2018-12-10T15:04:29.467Z,8.80
2018-12-10T15:06:55.488Z,8.70
2018-12-10T15:09:21.512Z,8.70
2018-12-10T15:11:47.508Z,8.70
2018-12-10T15:14:13.531Z,8.60
2018-12-10T15:16:39.643Z,8.50
2018-12-10T15:19:05.689Z,8.50
2018-12-10T15:21:31.804Z,8.50
2018-12-10T15:23:57.918Z,8.40
2018-12-10T15:26:23.937Z,8.40
2018-12-10T15:28:49.940Z,8.40
2018-12-10T15:31:23.014Z,8.30
2018-12-10T15:33:49.156Z,8.30
2018-12-10T15:36:15.175Z,8.30
2018-12-10T15:38:41.227Z,8.30
2018-12-10T15:41:07.619Z,8.30
2018-12-10T15:43:33.648Z,8.30
2018-12-10T15:45:59.678Z,8.30
2018-12-10T15:48:25.683Z,8.30
2018-12-10T15:50:52.130Z,8.30
2018-12-10T15:53:18.148Z,8.30
2018-12-10T15:55:44.269Z,8.30
2018-12-10T15:58:17.311Z,8.20
2018-12-10T16:00:43.318Z,8.20
2018-12-10T16:06:11.216Z,8.10
2018-12-10T16:08:37.228Z,8.00
2018-12-10T16:11:03.363Z,8.00
2018-12-10T16:13:29.363Z,7.90
2018-12-10T16:15:55.376Z,7.90
2018-12-10T16:18:21.407Z,7.80
2018-12-10T16:20:47.471Z,7.60
2018-12-10T16:23:13.651Z,7.70
2018-12-10T16:25:39.656Z,7.70
2018-12-10T16:28:05.689Z,7.60
2018-12-10T16:30:39.083Z,7.70
2018-12-10T16:33:05.211Z,7.60
2018-12-10T16:35:32.368Z,7.60
2018-12-10T16:37:58.408Z,7.60
2018-12-10T16:40:24.423Z,7.60
2018-12-10T16:42:50.431Z,7.50
2018-12-10T16:45:16.454Z,7.40
2018-12-10T16:47:42.483Z,7.60
2018-12-10T16:50:08.503Z,7.50
2018-12-10T16:52:34.632Z,7.50
2018-12-10T16:55:00.699Z,7.50
2018-12-10T16:57:26.823Z,7.40
2018-12-10T16:59:52.866Z,7.40
2018-12-10T17:02:18.891Z,7.20
2018-12-10T17:04:44.919Z,7.00
2018-12-10T17:07:10.923Z,7.30
2018-12-10T17:09:37.769Z,7.30
2018-12-10T17:12:04.114Z,7.20
2018-12-10T17:14:30.268Z,7.20
2018-12-10T17:16:56.407Z,7.20
2018-12-10T17:19:22.427Z,7.10
2018-12-10T17:21:48.556Z,7.10
2018-12-10T17:24:14.576Z,7.10
2018-12-10T17:26:40.695Z,7.10
2018-12-10T17:29:06.718Z,7.10
2018-12-10T17:31:32.787Z,7.10
2018-12-10T17:33:58.816Z,7.00
2018-12-10T17:36:25.059Z,7.00
2018-12-10T17:38:51.184Z,7.00
2018-12-10T17:41:17.587Z,7.00
2018-12-10T17:43:43.591Z,7.00
2018-12-10T17:46:09.603Z,6.90
2018-12-10T17:48:42.723Z,6.90
2018-12-10T17:51:08.847Z,6.90
2018-12-10T17:53:34.847Z,6.90
2018-12-10T17:56:00.882Z,6.90
2018-12-10T17:58:27.002Z,6.80
2018-12-10T18:00:53.024Z,6.80
2018-12-10T18:03:19.030Z,6.80
2018-12-10T18:05:45.164Z,6.80
2018-12-10T18:08:11.183Z,6.80
2018-12-10T18:10:37.743Z,6.80
2018-12-10T18:13:03.840Z,6.80
2018-12-10T18:15:29.951Z,6.80
2018-12-10T18:17:55.981Z,6.80
2018-12-10T18:20:21.996Z,6.70
2018-12-10T18:22:48.120Z,6.70
2018-12-10T18:25:14.239Z,6.70
2018-12-10T18:27:40.269Z,6.70
2018-12-10T18:30:07.901Z,6.70
2018-12-10T18:32:33.911Z,6.60
2018-12-10T18:35:00.233Z,6.60
2018-12-10T18:37:26.251Z,6.60
2018-12-10T18:39:52.263Z,6.60
2018-12-10T18:42:18.287Z,6.60
2018-12-10T18:44:44.427Z,6.60
2018-12-10T18:47:10.431Z,6.60
2018-12-10T18:49:36.620Z,6.60
2018-12-10T18:52:02.689Z,6.60
2018-12-10T18:54:28.709Z,6.60
2018-12-10T18:56:54.932Z,6.60
2018-12-10T18:59:20.947Z,6.60
2018-12-10T19:01:46.971Z,6.60
2018-12-10T19:04:16.034Z,6.70
2018-12-10T19:06:42.052Z,6.70
2018-12-10T19:09:08.479Z,6.70
2018-12-10T19:11:34.723Z,6.70
2018-12-10T19:14:00.735Z,6.80
2018-12-10T19:16:26.747Z,6.90
2018-12-10T19:18:52.877Z,7.00
2018-12-10T19:21:18.989Z,7.00
2018-12-10T19:23:45.000Z,7.00
2018-12-10T19:26:11.039Z,7.00
2018-12-10T19:28:38.038Z,7.00
2018-12-10T19:31:04.076Z,7.00
2018-12-10T19:33:30.118Z,7.00
2018-12-10T19:35:56.231Z,7.00
2018-12-10T19:38:22.255Z,7.10
2018-12-10T19:40:48.267Z,7.10
2018-12-10T19:43:14.290Z,7.10
2018-12-10T19:45:40.491Z,7.10
2018-12-10T19:48:06.511Z,7.10
2018-12-10T19:50:32.753Z,7.20
2018-12-10T19:52:58.759Z,7.20
2018-12-10T19:55:24.891Z,7.20
2018-12-10T19:57:50.895Z,7.20
2018-12-10T20:00:17.025Z,7.10
2018-12-10T20:02:43.142Z,7.20
2018-12-10T20:05:09.363Z,7.10
2018-12-10T20:07:35.667Z,7.10
2018-12-10T20:10:02.811Z,7.10
2018-12-10T20:12:28.847Z,7.00
2018-12-10T20:14:54.979Z,7.00
2018-12-10T20:17:21.059Z,7.00
2018-12-10T20:19:47.222Z,7.00
2018-12-10T20:22:13.340Z,6.90
2018-12-10T20:24:39.378Z,6.90
2018-12-10T20:27:05.464Z,6.90
2018-12-10T20:29:31.595Z,6.90
2018-12-10T20:31:57.659Z,6.80
2018-12-10T20:34:23.782Z,6.80
2018-12-10T20:36:49.916Z,6.80
2018-12-10T20:39:15.965Z,6.80
2018-12-10T20:41:41.980Z,6.60
2018-12-10T20:44:07.999Z,6.70
2018-12-10T20:46:34.037Z,6.80
2018-12-10T20:49:00.070Z,6.70
2018-12-10T20:51:27.135Z,6.70
2018-12-10T20:53:53.508Z,6.70
2018-12-10T20:56:19.550Z,6.70
2018-12-10T20:58:45.615Z,6.70
2018-12-10T21:01:11.689Z,6.70
2018-12-10T21:03:37.739Z,6.70
2018-12-10T21:06:09.958Z,6.60
2018-12-10T21:08:36.003Z,6.60
2018-12-10T21:11:02.034Z,6.60
2018-12-10T21:13:28.132Z,6.60
2018-12-10T21:15:54.267Z,6.60
2018-12-10T21:18:20.459Z,6.60
2018-12-10T21:20:46.514Z,6.60
2018-12-10T21:23:12.543Z,6.60
2018-12-10T21:25:38.610Z,6.60
2018-12-10T21:28:04.684Z,6.60
2018-12-10T21:30:30.775Z,6.70
2018-12-10T21:32:56.951Z,6.70
2018-12-10T21:35:23.027Z,6.70
2018-12-10T21:37:49.065Z,6.70
2018-12-10T21:40:15.109Z,6.80
2018-12-10T21:42:41.124Z,6.80
2018-12-10T21:45:07.370Z,6.80
2018-12-10T21:47:33.504Z,6.80
2018-12-10T21:49:59.543Z,6.80
2018-12-10T21:52:25.567Z,6.80
2018-12-10T21:54:51.602Z,6.80
2018-12-10T21:57:17.618Z,6.80
2018-12-10T21:59:43.633Z,6.80
2018-12-10T22:02:09.665Z,6.80
2018-12-10T22:04:35.890Z,6.80
2018-12-10T22:07:02.148Z,6.80
2018-12-10T22:09:28.328Z,6.80
2018-12-10T22:12:01.363Z,6.80
2018-12-10T22:14:27.404Z,6.70
2018-12-10T22:16:53.417Z,6.70
2018-12-10T22:19:19.435Z,6.70
2018-12-10T22:21:45.468Z,6.70
2018-12-10T22:24:11.495Z,6.70
2018-12-10T22:26:37.544Z,6.70
2018-12-10T22:29:03.572Z,6.70
2018-12-10T22:31:29.610Z,6.70
2018-12-10T22:33:55.623Z,6.70
2018-12-10T22:36:21.650Z,6.60
2018-12-10T22:38:47.895Z,6.60
2018-12-10T22:41:13.908Z,6.60
2018-12-10T22:43:40.002Z,6.60
2018-12-10T22:46:06.047Z,6.60
2018-12-10T22:48:32.060Z,6.50
2018-12-10T22:50:58.096Z,6.50
2018-12-10T22:53:24.119Z,6.50
2018-12-10T22:55:50.126Z,6.50
2018-12-10T22:58:16.392Z,6.50
2018-12-10T23:00:44.932Z,6.40
2018-12-10T23:03:10.944Z,6.40
2018-12-10T23:05:37.179Z,6.40
2018-12-10T23:08:03.329Z,6.30
2018-12-10T23:10:29.569Z,6.30
2018-12-10T23:12:55.599Z,6.20
2018-12-10T23:15:21.667Z,6.20
2018-12-10T23:17:47.684Z,6.20
2018-12-10T23:20:13.841Z,6.10
2018-12-10T23:22:39.852Z,6.10
2018-12-10T23:25:05.979Z,6.10
2018-12-10T23:27:32.187Z,6.00
2018-12-10T23:29:58.216Z,6.00
2018-12-10T23:32:24.263Z,6.00
2018-12-10T23:34:50.294Z,6.00
2018-12-10T23:37:16.337Z,6.00
2018-12-10T23:39:42.356Z,6.00
2018-12-10T23:42:15.488Z,6.00
2018-12-10T23:44:47.645Z,6.00
2018-12-10T23:47:13.666Z,6.00
2018-12-10T23:49:40.455Z,5.90
2018-12-10T23:52:06.467Z,5.90
2018-12-10T23:54:32.465Z,5.90
2018-12-10T23:56:58.484Z,5.90
2018-12-10T23:59:24.507Z,5.80
